sensor_id;sensor_type;location;lat;lon;timestamp;P1;durP1;ratioP1;P2;durP2;ratioP2
8825;SDS011;4449;50.872;4.714;2022-10-16T00:01:42;1.45;;;1.40;;
8825;SDS011;4449;50.872;4.714;2022-10-16T00:04:10;3.17;;;1.23;;
8825;SDS011;4449;50.872;4.714;2022-10-16T00:06:38;1.35;;;1.33;;
8825;SDS011;4449;50.872;4.714;2022-10-16T00:09:07;1.35;;;1.30;;
8825;SDS011;4449;50.872;4.714;2022-10-16T00:11:36;1.90;;;1.13;;
8825;SDS011;4449;50.872;4.714;2022-10-16T00:14:05;1.30;;;1.30;;
8825;SDS011;4449;50.872;4.714;2022-10-16T00:16:34;1.80;;;1.40;;
8825;SDS011;4449;50.872;4.714;2022-10-16T00:19:02;1.40;;;1.30;;
8825;SDS011;4449;50.872;4.714;2022-10-16T00:21:30;1.30;;;1.30;;
8825;SDS011;4449;50.872;4.714;2022-10-16T00:23:58;1.75;;;1.23;;
8825;SDS011;4449;50.872;4.714;2022-10-16T00:26:28;1.40;;;1.30;;
8825;SDS011;4449;50.872;4.714;2022-10-16T00:28:56;1.30;;;1.20;;
8825;SDS011;4449;50.872;4.714;2022-10-16T00:31:24;1.60;;;1.00;;
8825;SDS011;4449;50.872;4.714;2022-10-16T00:33:52;1.42;;;1.13;;
8825;SDS011;4449;50.872;4.714;2022-10-16T00:36:20;1.10;;;1.02;;
8825;SDS011;4449;50.872;4.714;2022-10-16T00:38:49;1.73;;;1.20;;
8825;SDS011;4449;50.872;4.714;2022-10-16T00:41:20;1.45;;;1.35;;
8825;SDS011;4449;50.872;4.714;2022-10-16T00:43:50;2.58;;;1.17;;
8825;SDS011;4449;50.872;4.714;2022-10-16T00:46:19;1.23;;;1.13;;
8825;SDS011;4449;50.872;4.714;2022-10-16T00:48:48;1.45;;;1.35;;
8825;SDS011;4449;50.872;4.714;2022-10-16T00:51:17;1.30;;;1.20;;
8825;SDS011;4449;50.872;4.714;2022-10-16T00:53:46;1.23;;;1.20;;
8825;SDS011;4449;50.872;4.714;2022-10-16T00:56:14;1.33;;;1.23;;
8825;SDS011;4449;50.872;4.714;2022-10-16T00:58:42;1.30;;;1.20;;
8825;SDS011;4449;50.872;4.714;2022-10-16T01:01:11;2.38;;;1.10;;
8825;SDS011;4449;50.872;4.714;2022-10-16T01:03:39;1.07;;;1.07;;
8825;SDS011;4449;50.872;4.714;2022-10-16T01:06:12;1.27;;;1.20;;
8825;SDS011;4449;50.872;4.714;2022-10-16T01:08:47;1.10;;;1.10;;
8825;SDS011;4449;50.872;4.714;2022-10-16T01:11:21;1.50;;;1.40;;
8825;SDS011;4449;50.872;4.714;2022-10-16T01:13:52;1.30;;;1.20;;
8825;SDS011;4449;50.872;4.714;2022-10-16T01:16:25;1.00;;;1.00;;
8825;SDS011;4449;50.872;4.714;2022-10-16T01:18:56;1.20;;;1.20;;
8825;SDS011;4449;50.872;4.714;2022-10-16T01:21:26;1.17;;;1.17;;
8825;SDS011;4449;50.872;4.714;2022-10-16T01:23:57;1.10;;;1.10;;
8825;SDS011;4449;50.872;4.714;2022-10-16T01:26:31;1.42;;;1.30;;
8825;SDS011;4449;50.872;4.714;2022-10-16T01:29:02;1.85;;;1.30;;
8825;SDS011;4449;50.872;4.714;2022-10-16T01:31:32;2.38;;;1.27;;
8825;SDS011;4449;50.872;4.714;2022-10-16T01:34:02;1.20;;;1.20;;
8825;SDS011;4449;50.872;4.714;2022-10-16T01:36:32;1.23;;;1.10;;
8825;SDS011;4449;50.872;4.714;2022-10-16T01:39:02;1.30;;;1.30;;
8825;SDS011;4449;50.872;4.714;2022-10-16T01:41:31;1.10;;;1.10;;
8825;SDS011;4449;50.872;4.714;2022-10-16T01:44:01;1.30;;;1.20;;
8825;SDS011;4449;50.872;4.714;2022-10-16T01:46:31;1.33;;;1.27;;
8825;SDS011;4449;50.872;4.714;2022-10-16T01:49:00;1.13;;;1.13;;
8825;SDS011;4449;50.872;4.714;2022-10-16T01:51:29;1.05;;;1.05;;
8825;SDS011;4449;50.872;4.714;2022-10-16T01:53:57;1.10;;;1.10;;
8825;SDS011;4449;50.872;4.714;2022-10-16T01:56:26;1.20;;;1.10;;
8825;SDS011;4449;50.872;4.714;2022-10-16T01:58:55;1.23;;;1.13;;
8825;SDS011;4449;50.872;4.714;2022-10-16T02:01:25;1.27;;;1.27;;
8825;SDS011;4449;50.872;4.714;2022-10-16T02:03:56;1.30;;;1.30;;
8825;SDS011;4449;50.872;4.714;2022-10-16T02:06:25;1.35;;;1.35;;
8825;SDS011;4449;50.872;4.714;2022-10-16T02:08:53;1.05;;;1.05;;
8825;SDS011;4449;50.872;4.714;2022-10-16T02:11:20;1.77;;;1.67;;
8825;SDS011;4449;50.872;4.714;2022-10-16T02:13:50;1.40;;;1.40;;
8825;SDS011;4449;50.872;4.714;2022-10-16T02:16:18;1.30;;;1.30;;
8825;SDS011;4449;50.872;4.714;2022-10-16T02:18:46;1.00;;;1.00;;
8825;SDS011;4449;50.872;4.714;2022-10-16T02:21:16;1.40;;;1.40;;
8825;SDS011;4449;50.872;4.714;2022-10-16T02:23:45;1.30;;;1.30;;
8825;SDS011;4449;50.872;4.714;2022-10-16T02:26:20;1.90;;;1.45;;
8825;SDS011;4449;50.872;4.714;2022-10-16T02:28:53;1.50;;;1.17;;
8825;SDS011;4449;50.872;4.714;2022-10-16T02:31:23;1.30;;;1.30;;
8825;SDS011;4449;50.872;4.714;2022-10-16T02:33:52;1.20;;;1.20;;
8825;SDS011;4449;50.872;4.714;2022-10-16T02:36:23;1.23;;;1.23;;
8825;SDS011;4449;50.872;4.714;2022-10-16T02:38:51;1.30;;;1.30;;
8825;SDS011;4449;50.872;4.714;2022-10-16T02:41:20;2.80;;;1.50;;
8825;SDS011;4449;50.872;4.714;2022-10-16T02:43:48;1.40;;;1.30;;
8825;SDS011;4449;50.872;4.714;2022-10-16T02:46:16;1.52;;;1.30;;
8825;SDS011;4449;50.872;4.714;2022-10-16T02:48:44;1.38;;;1.27;;
8825;SDS011;4449;50.872;4.714;2022-10-16T02:51:12;2.70;;;1.40;;
8825;SDS011;4449;50.872;4.714;2022-10-16T02:53:41;1.60;;;1.50;;
8825;SDS011;4449;50.872;4.714;2022-10-16T02:56:09;1.60;;;1.50;;
8825;SDS011;4449;50.872;4.714;2022-10-16T02:58:36;1.40;;;1.30;;
8825;SDS011;4449;50.872;4.714;2022-10-16T03:01:04;1.40;;;1.40;;
8825;SDS011;4449;50.872;4.714;2022-10-16T03:03:32;1.50;;;1.50;;
8825;SDS011;4449;50.872;4.714;2022-10-16T03:05:59;1.60;;;1.50;;
8825;SDS011;4449;50.872;4.714;2022-10-16T03:08:28;1.50;;;1.40;;
8825;SDS011;4449;50.872;4.714;2022-10-16T03:10:57;1.40;;;1.40;;
8825;SDS011;4449;50.872;4.714;2022-10-16T03:13:24;1.30;;;1.30;;
8825;SDS011;4449;50.872;4.714;2022-10-16T03:15:52;1.43;;;1.40;;
8825;SDS011;4449;50.872;4.714;2022-10-16T03:18:20;2.95;;;1.70;;
8825;SDS011;4449;50.872;4.714;2022-10-16T03:20:48;2.13;;;1.50;;
8825;SDS011;4449;50.872;4.714;2022-10-16T03:23:15;1.58;;;1.50;;
8825;SDS011;4449;50.872;4.714;2022-10-16T03:25:43;2.10;;;1.30;;
8825;SDS011;4449;50.872;4.714;2022-10-16T03:28:12;1.50;;;1.40;;
8825;SDS011;4449;50.872;4.714;2022-10-16T03:30:40;1.90;;;1.57;;
8825;SDS011;4449;50.872;4.714;2022-10-16T03:33:08;1.63;;;1.33;;
8825;SDS011;4449;50.872;4.714;2022-10-16T03:35:36;1.30;;;1.30;;
8825;SDS011;4449;50.872;4.714;2022-10-16T03:38:03;1.60;;;1.50;;
8825;SDS011;4449;50.872;4.714;2022-10-16T03:40:31;1.88;;;1.50;;
8825;SDS011;4449;50.872;4.714;2022-10-16T03:42:59;1.35;;;1.35;;
8825;SDS011;4449;50.872;4.714;2022-10-16T03:45:28;1.85;;;1.48;;
8825;SDS011;4449;50.872;4.714;2022-10-16T03:47:56;1.40;;;1.40;;
8825;SDS011;4449;50.872;4.714;2022-10-16T03:50:24;2.30;;;1.50;;
8825;SDS011;4449;50.872;4.714;2022-10-16T03:52:51;2.50;;;1.50;;
8825;SDS011;4449;50.872;4.714;2022-10-16T03:55:19;1.25;;;1.25;;
8825;SDS011;4449;50.872;4.714;2022-10-16T03:57:47;1.60;;;1.50;;
8825;SDS011;4449;50.872;4.714;2022-10-16T04:00:15;2.00;;;1.70;;
8825;SDS011;4449;50.872;4.714;2022-10-16T04:02:44;2.83;;;1.63;;
8825;SDS011;4449;50.872;4.714;2022-10-16T04:05:12;1.50;;;1.40;;
8825;SDS011;4449;50.872;4.714;2022-10-16T04:07:40;1.70;;;1.60;;
8825;SDS011;4449;50.872;4.714;2022-10-16T04:10:08;1.35;;;1.35;;
8825;SDS011;4449;50.872;4.714;2022-10-16T04:12:35;1.60;;;1.50;;
8825;SDS011;4449;50.872;4.714;2022-10-16T04:15:03;2.42;;;1.50;;
8825;SDS011;4449;50.872;4.714;2022-10-16T04:17:31;1.73;;;1.63;;
8825;SDS011;4449;50.872;4.714;2022-10-16T04:20:00;1.50;;;1.50;;
8825;SDS011;4449;50.872;4.714;2022-10-16T04:22:28;2.00;;;1.53;;
8825;SDS011;4449;50.872;4.714;2022-10-16T04:24:56;1.80;;;1.60;;
8825;SDS011;4449;50.872;4.714;2022-10-16T04:27:24;1.33;;;1.30;;
8825;SDS011;4449;50.872;4.714;2022-10-16T04:29:51;1.73;;;1.63;;
8825;SDS011;4449;50.872;4.714;2022-10-16T04:32:19;1.83;;;1.55;;
8825;SDS011;4449;50.872;4.714;2022-10-16T04:34:47;1.90;;;1.63;;
8825;SDS011;4449;50.872;4.714;2022-10-16T04:37:16;2.95;;;2.00;;
8825;SDS011;4449;50.872;4.714;2022-10-16T04:39:44;1.60;;;1.60;;
8825;SDS011;4449;50.872;4.714;2022-10-16T04:42:11;3.70;;;1.70;;
8825;SDS011;4449;50.872;4.714;2022-10-16T04:44:39;3.95;;;1.95;;
8825;SDS011;4449;50.872;4.714;2022-10-16T04:47:06;1.65;;;1.58;;
8825;SDS011;4449;50.872;4.714;2022-10-16T04:49:34;2.05;;;1.70;;
8825;SDS011;4449;50.872;4.714;2022-10-16T04:52:02;1.65;;;1.55;;
8825;SDS011;4449;50.872;4.714;2022-10-16T04:54:31;2.30;;;2.20;;
8825;SDS011;4449;50.872;4.714;2022-10-16T04:56:59;2.10;;;1.70;;
8825;SDS011;4449;50.872;4.714;2022-10-16T04:59:27;2.50;;;1.70;;
8825;SDS011;4449;50.872;4.714;2022-10-16T05:01:54;1.70;;;1.60;;
8825;SDS011;4449;50.872;4.714;2022-10-16T05:04:22;1.88;;;1.77;;
8825;SDS011;4449;50.872;4.714;2022-10-16T05:06:50;1.70;;;1.60;;
8825;SDS011;4449;50.872;4.714;2022-10-16T05:09:17;1.70;;;1.60;;
8825;SDS011;4449;50.872;4.714;2022-10-16T05:11:47;2.53;;;1.77;;
8825;SDS011;4449;50.872;4.714;2022-10-16T05:14:15;2.47;;;1.63;;
8825;SDS011;4449;50.872;4.714;2022-10-16T05:16:42;2.05;;;1.95;;
8825;SDS011;4449;50.872;4.714;2022-10-16T05:19:10;2.10;;;1.90;;
8825;SDS011;4449;50.872;4.714;2022-10-16T05:21:38;4.40;;;1.83;;
8825;SDS011;4449;50.872;4.714;2022-10-16T05:24:05;1.60;;;1.60;;
8825;SDS011;4449;50.872;4.714;2022-10-16T05:26:36;2.22;;;1.73;;
8825;SDS011;4449;50.872;4.714;2022-10-16T05:29:05;1.92;;;1.73;;
8825;SDS011;4449;50.872;4.714;2022-10-16T05:31:33;3.47;;;1.77;;
8825;SDS011;4449;50.872;4.714;2022-10-16T05:34:01;1.75;;;1.65;;
8825;SDS011;4449;50.872;4.714;2022-10-16T05:36:29;5.03;;;1.95;;
8825;SDS011;4449;50.872;4.714;2022-10-16T05:38:57;2.95;;;2.10;;
8825;SDS011;4449;50.872;4.714;2022-10-16T05:41:25;1.92;;;1.83;;
8825;SDS011;4449;50.872;4.714;2022-10-16T05:43:52;1.95;;;1.80;;
8825;SDS011;4449;50.872;4.714;2022-10-16T05:46:21;2.00;;;1.80;;
8825;SDS011;4449;50.872;4.714;2022-10-16T05:48:51;3.05;;;2.13;;
8825;SDS011;4449;50.872;4.714;2022-10-16T05:51:19;2.00;;;1.90;;
8825;SDS011;4449;50.872;4.714;2022-10-16T05:53:47;2.30;;;2.10;;
8825;SDS011;4449;50.872;4.714;2022-10-16T05:56:14;2.60;;;1.80;;
8825;SDS011;4449;50.872;4.714;2022-10-16T05:58:42;2.47;;;1.80;;
8825;SDS011;4449;50.872;4.714;2022-10-16T06:01:11;2.10;;;2.00;;
8825;SDS011;4449;50.872;4.714;2022-10-16T06:03:40;5.75;;;1.98;;
8825;SDS011;4449;50.872;4.714;2022-10-16T06:06:08;2.47;;;1.70;;
8825;SDS011;4449;50.872;4.714;2022-10-16T06:08:36;1.73;;;1.63;;
8825;SDS011;4449;50.872;4.714;2022-10-16T06:11:04;2.20;;;1.90;;
8825;SDS011;4449;50.872;4.714;2022-10-16T06:13:32;3.08;;;1.80;;
8825;SDS011;4449;50.872;4.714;2022-10-16T06:16:00;2.50;;;1.98;;
8825;SDS011;4449;50.872;4.714;2022-10-16T06:18:28;2.20;;;2.00;;
8825;SDS011;4449;50.872;4.714;2022-10-16T06:20:58;3.10;;;1.80;;
8825;SDS011;4449;50.872;4.714;2022-10-16T06:23:28;2.20;;;1.80;;
8825;SDS011;4449;50.872;4.714;2022-10-16T06:26:03;1.88;;;1.77;;
8825;SDS011;4449;50.872;4.714;2022-10-16T06:28:31;1.85;;;1.75;;
8825;SDS011;4449;50.872;4.714;2022-10-16T06:30:59;2.92;;;1.95;;
8825;SDS011;4449;50.872;4.714;2022-10-16T06:33:27;2.85;;;2.05;;
8825;SDS011;4449;50.872;4.714;2022-10-16T06:36:01;2.10;;;2.00;;
8825;SDS011;4449;50.872;4.714;2022-10-16T06:38:29;2.13;;;1.90;;
8825;SDS011;4449;50.872;4.714;2022-10-16T06:40:56;2.15;;;1.90;;
8825;SDS011;4449;50.872;4.714;2022-10-16T06:43:24;2.05;;;1.95;;
8825;SDS011;4449;50.872;4.714;2022-10-16T06:45:52;1.92;;;1.83;;
8825;SDS011;4449;50.872;4.714;2022-10-16T06:48:20;2.25;;;2.13;;
8825;SDS011;4449;50.872;4.714;2022-10-16T06:50:55;2.97;;;2.40;;
8825;SDS011;4449;50.872;4.714;2022-10-16T06:53:24;2.20;;;2.10;;
8825;SDS011;4449;50.872;4.714;2022-10-16T06:55:52;2.22;;;2.10;;
8825;SDS011;4449;50.872;4.714;2022-10-16T06:58:20;2.35;;;2.25;;
8825;SDS011;4449;50.872;4.714;2022-10-16T07:00:48;2.53;;;2.03;;
8825;SDS011;4449;50.872;4.714;2022-10-16T07:03:15;2.60;;;2.40;;
8825;SDS011;4449;50.872;4.714;2022-10-16T07:05:43;2.40;;;2.30;;
8825;SDS011;4449;50.872;4.714;2022-10-16T07:08:11;2.37;;;2.17;;
8825;SDS011;4449;50.872;4.714;2022-10-16T07:10:40;2.35;;;2.13;;
8825;SDS011;4449;50.872;4.714;2022-10-16T07:13:07;4.15;;;2.35;;
8825;SDS011;4449;50.872;4.714;2022-10-16T07:15:38;2.55;;;2.38;;
8825;SDS011;4449;50.872;4.714;2022-10-16T07:18:06;2.47;;;2.27;;
8825;SDS011;4449;50.872;4.714;2022-10-16T07:20:33;2.78;;;2.00;;
8825;SDS011;4449;50.872;4.714;2022-10-16T07:23:03;2.20;;;2.10;;
8825;SDS011;4449;50.872;4.714;2022-10-16T07:25:32;2.40;;;2.20;;
8825;SDS011;4449;50.872;4.714;2022-10-16T07:28:01;2.40;;;2.20;;
8825;SDS011;4449;50.872;4.714;2022-10-16T07:30:29;4.82;;;2.97;;
8825;SDS011;4449;50.872;4.714;2022-10-16T07:32:56;2.30;;;2.20;;
8825;SDS011;4449;50.872;4.714;2022-10-16T07:35:24;2.20;;;2.00;;
8825;SDS011;4449;50.872;4.714;2022-10-16T07:37:51;2.15;;;2.03;;
8825;SDS011;4449;50.872;4.714;2022-10-16T07:40:19;2.60;;;2.50;;
8825;SDS011;4449;50.872;4.714;2022-10-16T07:42:47;2.63;;;2.15;;
8825;SDS011;4449;50.872;4.714;2022-10-16T07:45:16;2.22;;;2.10;;
8825;SDS011;4449;50.872;4.714;2022-10-16T07:47:43;2.30;;;2.07;;
8825;SDS011;4449;50.872;4.714;2022-10-16T07:50:11;2.50;;;2.30;;
8825;SDS011;4449;50.872;4.714;2022-10-16T07:52:39;2.17;;;2.08;;
8825;SDS011;4449;50.872;4.714;2022-10-16T07:55:07;2.60;;;2.28;;
8825;SDS011;4449;50.872;4.714;2022-10-16T07:57:43;4.93;;;2.25;;
8825;SDS011;4449;50.872;4.714;2022-10-16T08:00:27;1.73;;;1.73;;
8825;SDS011;4449;50.872;4.714;2022-10-16T08:02:59;1.80;;;1.70;;
8825;SDS011;4449;50.872;4.714;2022-10-16T08:05:27;1.73;;;1.63;;
8825;SDS011;4449;50.872;4.714;2022-10-16T08:07:55;3.43;;;1.80;;
8825;SDS011;4449;50.872;4.714;2022-10-16T08:10:23;4.17;;;2.00;;
8825;SDS011;4449;50.872;4.714;2022-10-16T08:12:51;2.10;;;1.90;;
8825;SDS011;4449;50.872;4.714;2022-10-16T08:15:20;2.10;;;1.90;;
8825;SDS011;4449;50.872;4.714;2022-10-16T08:17:54;2.20;;;2.00;;
8825;SDS011;4449;50.872;4.714;2022-10-16T08:20:22;2.28;;;1.65;;
8825;SDS011;4449;50.872;4.714;2022-10-16T08:22:49;2.03;;;1.92;;
8825;SDS011;4449;50.872;4.714;2022-10-16T08:25:16;2.25;;;1.98;;
8825;SDS011;4449;50.872;4.714;2022-10-16T08:27:44;1.95;;;1.83;;
8825;SDS011;4449;50.872;4.714;2022-10-16T08:30:12;2.00;;;1.90;;
8825;SDS011;4449;50.872;4.714;2022-10-16T08:32:41;4.07;;;1.73;;
8825;SDS011;4449;50.872;4.714;2022-10-16T08:35:08;1.70;;;1.60;;
8825;SDS011;4449;50.872;4.714;2022-10-16T08:37:36;2.33;;;2.13;;
8825;SDS011;4449;50.872;4.714;2022-10-16T08:40:05;2.45;;;1.75;;
8825;SDS011;4449;50.872;4.714;2022-10-16T08:42:37;3.20;;;1.90;;
8825;SDS011;4449;50.872;4.714;2022-10-16T08:45:21;2.22;;;1.70;;
8825;SDS011;4449;50.872;4.714;2022-10-16T08:47:56;1.50;;;1.50;;
8825;SDS011;4449;50.872;4.714;2022-10-16T08:50:28;1.83;;;1.42;;
8825;SDS011;4449;50.872;4.714;2022-10-16T08:52:57;1.65;;;1.38;;
8825;SDS011;4449;50.872;4.714;2022-10-16T08:55:37;2.17;;;1.40;;
8825;SDS011;4449;50.872;4.714;2022-10-16T08:58:09;2.67;;;1.45;;
8825;SDS011;4449;50.872;4.714;2022-10-16T09:00:38;2.00;;;1.30;;
8825;SDS011;4449;50.872;4.714;2022-10-16T09:03:10;2.10;;;1.33;;
8825;SDS011;4449;50.872;4.714;2022-10-16T09:05:49;6.43;;;1.17;;
8825;SDS011;4449;50.872;4.714;2022-10-16T09:08:21;3.50;;;1.30;;
8825;SDS011;4449;50.872;4.714;2022-10-16T09:10:55;1.60;;;1.60;;
8825;SDS011;4449;50.872;4.714;2022-10-16T09:13:26;1.30;;;1.20;;
8825;SDS011;4449;50.872;4.714;2022-10-16T09:15:55;6.60;;;1.97;;
8825;SDS011;4449;50.872;4.714;2022-10-16T09:18:29;1.33;;;1.23;;
8825;SDS011;4449;50.872;4.714;2022-10-16T09:21:01;5.23;;;1.70;;
8825;SDS011;4449;50.872;4.714;2022-10-16T09:23:33;3.27;;;1.50;;
8825;SDS011;4449;50.872;4.714;2022-10-16T09:26:01;1.33;;;1.23;;
8825;SDS011;4449;50.872;4.714;2022-10-16T09:28:29;2.40;;;1.20;;
8825;SDS011;4449;50.872;4.714;2022-10-16T09:30:57;3.70;;;1.13;;
8825;SDS011;4449;50.872;4.714;2022-10-16T09:33:25;1.20;;;1.10;;
8825;SDS011;4449;50.872;4.714;2022-10-16T09:35:56;2.70;;;2.17;;
8825;SDS011;4449;50.872;4.714;2022-10-16T09:38:26;2.37;;;1.30;;
8825;SDS011;4449;50.872;4.714;2022-10-16T09:40:54;1.77;;;0.97;;
8825;SDS011;4449;50.872;4.714;2022-10-16T10:41:27;2.77;;;1.20;;
8825;SDS011;4449;50.872;4.714;2022-10-16T10:44:01;0.93;;;0.93;;
8825;SDS011;4449;50.872;4.714;2022-10-16T10:46:32;1.40;;;1.10;;
8825;SDS011;4449;50.872;4.714;2022-10-16T10:49:08;1.00;;;1.00;;
8825;SDS011;4449;50.872;4.714;2022-10-16T10:51:40;1.40;;;1.23;;
8825;SDS011;4449;50.872;4.714;2022-10-16T10:54:13;3.03;;;0.90;;
8825;SDS011;4449;50.872;4.714;2022-10-16T10:56:46;2.63;;;0.70;;
8825;SDS011;4449;50.872;4.714;2022-10-16T10:59:25;0.70;;;0.70;;
8825;SDS011;4449;50.872;4.714;2022-10-16T11:01:56;2.63;;;0.73;;
8825;SDS011;4449;50.872;4.714;2022-10-16T11:04:35;4.70;;;1.87;;
8825;SDS011;4449;50.872;4.714;2022-10-16T11:07:04;1.00;;;0.70;;
8825;SDS011;4449;50.872;4.714;2022-10-16T11:09:34;2.10;;;1.03;;
8825;SDS011;4449;50.872;4.714;2022-10-16T11:12:06;3.50;;;1.13;;
8825;SDS011;4449;50.872;4.714;2022-10-16T11:14:39;1.80;;;1.20;;
8825;SDS011;4449;50.872;4.714;2022-10-16T11:17:10;1.10;;;1.10;;
8825;SDS011;4449;50.872;4.714;2022-10-16T11:19:39;0.87;;;0.87;;
8825;SDS011;4449;50.872;4.714;2022-10-16T11:22:11;1.07;;;0.80;;
8825;SDS011;4449;50.872;4.714;2022-10-16T11:24:41;3.80;;;1.00;;
8825;SDS011;4449;50.872;4.714;2022-10-16T11:27:12;1.13;;;1.00;;
8825;SDS011;4449;50.872;4.714;2022-10-16T11:29:44;2.47;;;1.33;;
8825;SDS011;4449;50.872;4.714;2022-10-16T11:32:16;1.10;;;1.00;;
8825;SDS011;4449;50.872;4.714;2022-10-16T11:34:47;3.23;;;1.60;;
8825;SDS011;4449;50.872;4.714;2022-10-16T11:37:17;1.80;;;1.10;;
8825;SDS011;4449;50.872;4.714;2022-10-16T11:39:45;1.07;;;0.97;;
8825;SDS011;4449;50.872;4.714;2022-10-16T11:42:16;1.20;;;1.10;;
8825;SDS011;4449;50.872;4.714;2022-10-16T11:44:48;1.87;;;1.10;;
8825;SDS011;4449;50.872;4.714;2022-10-16T11:47:30;1.37;;;1.27;;
8825;SDS011;4449;50.872;4.714;2022-10-16T11:49:59;0.97;;;0.97;;
8825;SDS011;4449;50.872;4.714;2022-10-16T11:52:30;4.03;;;1.07;;
8825;SDS011;4449;50.872;4.714;2022-10-16T11:54:59;3.50;;;1.13;;
8825;SDS011;4449;50.872;4.714;2022-10-16T11:57:31;4.07;;;1.27;;
8825;SDS011;4449;50.872;4.714;2022-10-16T12:00:00;3.00;;;1.10;;
8825;SDS011;4449;50.872;4.714;2022-10-16T12:02:31;3.17;;;1.00;;
8825;SDS011;4449;50.872;4.714;2022-10-16T12:05:03;4.17;;;1.43;;
8825;SDS011;4449;50.872;4.714;2022-10-16T12:07:35;2.93;;;1.07;;
8825;SDS011;4449;50.872;4.714;2022-10-16T12:10:10;1.63;;;1.40;;
8825;SDS011;4449;50.872;4.714;2022-10-16T12:12:40;1.23;;;1.20;;
8825;SDS011;4449;50.872;4.714;2022-10-16T12:15:21;1.10;;;1.10;;
8825;SDS011;4449;50.872;4.714;2022-10-16T12:17:49;2.43;;;1.30;;
8825;SDS011;4449;50.872;4.714;2022-10-16T12:20:22;7.17;;;1.90;;
8825;SDS011;4449;50.872;4.714;2022-10-16T12:22:52;1.90;;;1.30;;
8825;SDS011;4449;50.872;4.714;2022-10-16T12:25:21;3.07;;;1.10;;
8825;SDS011;4449;50.872;4.714;2022-10-16T12:28:01;0.97;;;0.97;;
8825;SDS011;4449;50.872;4.714;2022-10-16T12:30:31;1.07;;;1.07;;
8825;SDS011;4449;50.872;4.714;2022-10-16T12:33:00;1.67;;;1.30;;
8825;SDS011;4449;50.872;4.714;2022-10-16T12:35:29;2.23;;;1.00;;
8825;SDS011;4449;50.872;4.714;2022-10-16T12:38:05;3.40;;;1.10;;
8825;SDS011;4449;50.872;4.714;2022-10-16T12:40:34;0.90;;;0.90;;
8825;SDS011;4449;50.872;4.714;2022-10-16T12:43:12;1.50;;;1.03;;
8825;SDS011;4449;50.872;4.714;2022-10-16T12:45:40;1.23;;;1.10;;
8825;SDS011;4449;50.872;4.714;2022-10-16T12:48:18;1.00;;;1.00;;
8825;SDS011;4449;50.872;4.714;2022-10-16T12:50:47;1.90;;;0.83;;
8825;SDS011;4449;50.872;4.714;2022-10-16T12:53:18;2.87;;;1.10;;
8825;SDS011;4449;50.872;4.714;2022-10-16T12:55:49;1.00;;;0.90;;
8825;SDS011;4449;50.872;4.714;2022-10-16T12:58:24;0.90;;;0.90;;
8825;SDS011;4449;50.872;4.714;2022-10-16T13:00:54;1.07;;;1.00;;
8825;SDS011;4449;50.872;4.714;2022-10-16T13:03:34;1.13;;;1.00;;
8825;SDS011;4449;50.872;4.714;2022-10-16T13:06:07;1.23;;;1.13;;
8825;SDS011;4449;50.872;4.714;2022-10-16T13:08:42;3.03;;;0.90;;
8825;SDS011;4449;50.872;4.714;2022-10-16T13:11:14;2.13;;;1.03;;
8825;SDS011;4449;50.872;4.714;2022-10-16T13:16:30;5.43;;;1.13;;
8825;SDS011;4449;50.872;4.714;2022-10-16T13:19:03;1.87;;;0.97;;
8825;SDS011;4449;50.872;4.714;2022-10-16T13:21:37;1.40;;;1.20;;
8825;SDS011;4449;50.872;4.714;2022-10-16T13:24:10;1.17;;;1.00;;
8825;SDS011;4449;50.872;4.714;2022-10-16T13:26:41;1.47;;;0.63;;
8825;SDS011;4449;50.872;4.714;2022-10-16T13:29:10;2.03;;;1.10;;
8825;SDS011;4449;50.872;4.714;2022-10-16T13:31:40;2.37;;;1.00;;
8825;SDS011;4449;50.872;4.714;2022-10-16T13:34:10;1.50;;;1.17;;
8825;SDS011;4449;50.872;4.714;2022-10-16T13:36:42;4.03;;;1.23;;
8825;SDS011;4449;50.872;4.714;2022-10-16T13:39:11;1.07;;;0.93;;
8825;SDS011;4449;50.872;4.714;2022-10-16T13:41:39;2.27;;;1.13;;
8825;SDS011;4449;50.872;4.714;2022-10-16T13:44:11;1.70;;;1.50;;
8825;SDS011;4449;50.872;4.714;2022-10-16T13:46:42;1.87;;;1.10;;
8825;SDS011;4449;50.872;4.714;2022-10-16T13:49:13;2.87;;;1.27;;
8825;SDS011;4449;50.872;4.714;2022-10-16T13:51:41;1.60;;;1.20;;
8825;SDS011;4449;50.872;4.714;2022-10-16T13:54:09;1.40;;;1.30;;
8825;SDS011;4449;50.872;4.714;2022-10-16T13:56:38;4.27;;;1.03;;
8825;SDS011;4449;50.872;4.714;2022-10-16T13:59:07;3.07;;;1.20;;
8825;SDS011;4449;50.872;4.714;2022-10-16T14:01:51;2.00;;;1.33;;
8825;SDS011;4449;50.872;4.714;2022-10-16T14:04:19;0.83;;;0.83;;
8825;SDS011;4449;50.872;4.714;2022-10-16T14:06:49;2.53;;;0.97;;
8825;SDS011;4449;50.872;4.714;2022-10-16T14:09:19;0.90;;;0.90;;
8825;SDS011;4449;50.872;4.714;2022-10-16T14:11:48;1.17;;;0.90;;
8825;SDS011;4449;50.872;4.714;2022-10-16T14:14:16;1.53;;;1.30;;
8825;SDS011;4449;50.872;4.714;2022-10-16T14:16:44;1.07;;;1.07;;
8825;SDS011;4449;50.872;4.714;2022-10-16T14:19:15;1.60;;;0.83;;
8825;SDS011;4449;50.872;4.714;2022-10-16T14:21:45;1.93;;;0.97;;
8825;SDS011;4449;50.872;4.714;2022-10-16T14:24:13;1.37;;;1.07;;
8825;SDS011;4449;50.872;4.714;2022-10-16T14:26:42;1.43;;;1.30;;
8825;SDS011;4449;50.872;4.714;2022-10-16T14:29:11;2.13;;;1.20;;
8825;SDS011;4449;50.872;4.714;2022-10-16T14:31:39;1.27;;;1.10;;
8825;SDS011;4449;50.872;4.714;2022-10-16T14:36:51;2.83;;;1.03;;
8825;SDS011;4449;50.872;4.714;2022-10-16T14:39:19;2.53;;;1.20;;
8825;SDS011;4449;50.872;4.714;2022-10-16T14:41:48;0.90;;;0.90;;
8825;SDS011;4449;50.872;4.714;2022-10-16T14:44:18;1.60;;;0.97;;
8825;SDS011;4449;50.872;4.714;2022-10-16T14:46:47;1.30;;;1.13;;
8825;SDS011;4449;50.872;4.714;2022-10-16T14:49:16;1.00;;;1.00;;
8825;SDS011;4449;50.872;4.714;2022-10-16T14:51:45;1.13;;;1.03;;
8825;SDS011;4449;50.872;4.714;2022-10-16T14:54:15;1.73;;;1.13;;
8825;SDS011;4449;50.872;4.714;2022-10-16T14:56:47;4.43;;;1.00;;
8825;SDS011;4449;50.872;4.714;2022-10-16T14:59:16;1.70;;;0.97;;
8825;SDS011;4449;50.872;4.714;2022-10-16T15:01:45;4.23;;;1.33;;
8825;SDS011;4449;50.872;4.714;2022-10-16T15:04:13;1.50;;;1.40;;
8825;SDS011;4449;50.872;4.714;2022-10-16T15:06:42;1.33;;;1.10;;
8825;SDS011;4449;50.872;4.714;2022-10-16T15:09:10;2.00;;;1.17;;
8825;SDS011;4449;50.872;4.714;2022-10-16T15:11:39;0.77;;;0.77;;
8825;SDS011;4449;50.872;4.714;2022-10-16T15:14:08;3.50;;;0.90;;
8825;SDS011;4449;50.872;4.714;2022-10-16T15:16:36;3.00;;;1.17;;
8825;SDS011;4449;50.872;4.714;2022-10-16T15:19:03;1.93;;;1.00;;
8825;SDS011;4449;50.872;4.714;2022-10-16T15:21:31;0.97;;;0.90;;
8825;SDS011;4449;50.872;4.714;2022-10-16T15:23:59;2.03;;;1.30;;
8825;SDS011;4449;50.872;4.714;2022-10-16T15:26:28;1.60;;;1.17;;
8825;SDS011;4449;50.872;4.714;2022-10-16T15:28:57;3.13;;;1.30;;
8825;SDS011;4449;50.872;4.714;2022-10-16T15:31:25;3.47;;;1.23;;
8825;SDS011;4449;50.872;4.714;2022-10-16T15:33:53;3.57;;;1.40;;
8825;SDS011;4449;50.872;4.714;2022-10-16T15:36:26;3.90;;;1.60;;
8825;SDS011;4449;50.872;4.714;2022-10-16T15:38:54;1.23;;;1.13;;
8825;SDS011;4449;50.872;4.714;2022-10-16T15:41:22;3.33;;;1.37;;
8825;SDS011;4449;50.872;4.714;2022-10-16T15:43:50;1.30;;;1.20;;
8825;SDS011;4449;50.872;4.714;2022-10-16T15:46:20;1.20;;;1.10;;
8825;SDS011;4449;50.872;4.714;2022-10-16T15:48:49;1.00;;;1.00;;
8825;SDS011;4449;50.872;4.714;2022-10-16T15:51:17;4.53;;;1.07;;
8825;SDS011;4449;50.872;4.714;2022-10-16T15:53:45;1.53;;;1.23;;
8825;SDS011;4449;50.872;4.714;2022-10-16T15:56:13;2.00;;;1.30;;
8825;SDS011;4449;50.872;4.714;2022-10-16T15:58:41;1.47;;;1.00;;
8825;SDS011;4449;50.872;4.714;2022-10-16T16:01:09;1.27;;;1.17;;
8825;SDS011;4449;50.872;4.714;2022-10-16T16:03:38;5.70;;;0.93;;
8825;SDS011;4449;50.872;4.714;2022-10-16T16:06:08;4.70;;;1.23;;
8825;SDS011;4449;50.872;4.714;2022-10-16T16:08:36;2.63;;;1.00;;
8825;SDS011;4449;50.872;4.714;2022-10-16T16:11:04;2.57;;;1.70;;
8825;SDS011;4449;50.872;4.714;2022-10-16T16:13:32;2.17;;;1.80;;
8825;SDS011;4449;50.872;4.714;2022-10-16T16:16:04;1.90;;;1.80;;
8825;SDS011;4449;50.872;4.714;2022-10-16T16:18:32;4.10;;;1.73;;
8825;SDS011;4449;50.872;4.714;2022-10-16T16:21:01;3.80;;;2.23;;
8825;SDS011;4449;50.872;4.714;2022-10-16T16:23:29;3.33;;;1.40;;
8825;SDS011;4449;50.872;4.714;2022-10-16T16:26:07;2.07;;;1.70;;
8825;SDS011;4449;50.872;4.714;2022-10-16T16:28:36;2.17;;;1.97;;
8825;SDS011;4449;50.872;4.714;2022-10-16T16:31:04;2.77;;;2.20;;
8825;SDS011;4449;50.872;4.714;2022-10-16T16:33:32;1.87;;;1.80;;